Time;durP1;ratioP1;P1;durP2;ratioP2;P2;SDS_P1;SDS_P2;PMS_P1;PMS_P2;Temp;Humidity;BMP_temperature;BMP_pressure;BME280_temperature;BME280_humidity;BME280_pressure;Samples;Min_cycle;Max_cycle;Signal;HPM_P1;HPM_P2
2023/06/05 00:01:59;;;;;;;4.37;3.90;;;;;18.40;97096.00;;;;4910900;29;20241;-75
2023/06/05 00:04:48;;;;;;;4.67;4.23;;;;;18.30;97094.00;;;;4910766;29;20221;-75
2023/06/05 00:07:38;;;;;;;4.10;3.70;;;;;18.00;97102.00;;;;4915046;29;20194;-75
2023/06/05 00:10:29;;;;;;;5.70;4.33;;;;;18.00;97103.00;;;;4912513;29;20213;-75
2023/06/05 00:13:18;;;;;;;4.13;3.73;;;;;18.10;97094.00;;;;4907378;29;20235;-75
2023/06/05 00:16:07;;;;;;;5.40;4.43;;;;;18.10;97096.00;;;;4904077;29;20235;-74
2023/06/05 00:18:57;;;;;;;7.33;3.60;;;;;18.10;97102.00;;;;4913337;29;20265;-74
2023/06/05 00:21:46;;;;;;;4.33;3.93;;;;;18.20;97094.00;;;;4913777;29;20718;-75
2023/06/05 00:24:35;;;;;;;4.10;3.40;;;;;18.20;97102.00;;;;4912173;29;20712;-75
2023/06/05 00:27:26;;;;;;;4.73;3.17;;;;;18.00;97089.00;;;;4907477;29;20202;-75
2023/06/05 00:30:16;;;;;;;4.97;4.47;;;;;17.90;97097.00;;;;4912832;29;20216;-75
2023/06/05 00:33:05;;;;;;;4.33;3.93;;;;;17.90;97096.00;;;;4911346;29;20255;-75
2023/06/05 00:35:54;;;;;;;4.67;4.13;;;;;17.90;97088.00;;;;4911660;29;20327;-75
2023/06/05 00:38:44;;;;;;;3.50;3.10;;;;;18.10;97094.00;;;;4907672;29;20214;-75
2023/06/05 00:41:33;;;;;;;3.97;3.57;;;;;18.20;97086.00;;;;4910740;29;20225;-75
2023/06/05 00:44:23;;;;;;;5.87;3.73;;;;;18.30;97090.00;;;;4907153;29;20213;-75
2023/06/05 00:47:13;;;;;;;3.80;3.50;;;;;18.30;97089.00;;;;4903277;29;20294;-75
2023/06/05 00:50:02;;;;;;;4.00;3.67;;;;;18.30;97082.00;;;;4909310;29;20217;-73
2023/06/05 00:52:51;;;;;;;4.73;3.60;;;;;18.30;97085.00;;;;4912371;29;20225;-74
2023/06/05 00:55:40;;;;;;;4.67;4.03;;;;;18.40;97079.00;;;;4913112;29;20228;-75
2023/06/05 00:58:30;;;;;;;4.93;3.70;;;;;18.40;97085.00;;;;4913448;29;20585;-75
2023/06/05 01:01:21;;;;;;;4.00;3.63;;;;;18.40;97077.00;;;;4907588;29;20217;-75
2023/06/05 01:04:10;;;;;;;4.93;4.43;;;;;18.30;97079.00;;;;4912868;29;20212;-75
2023/06/05 01:07:00;;;;;;;4.73;3.93;;;;;18.30;97076.00;;;;4910680;29;20217;-74
2023/06/05 01:09:50;;;;;;;7.93;4.03;;;;;18.30;97065.00;;;;4911813;29;20213;-75
2023/06/05 01:12:44;;;;;;;5.83;4.20;;;;;18.30;97073.00;;;;4911237;29;20261;-75
2023/06/05 01:15:36;;;;;;;4.33;3.93;;;;;18.40;97071.00;;;;4911207;29;20197;-74
2023/06/05 01:18:26;;;;;;;4.97;4.50;;;;;18.40;97072.00;;;;4906281;29;20210;-75
2023/06/05 01:21:15;;;;;;;4.70;4.00;;;;;18.40;97075.00;;;;4909641;29;20201;-75
2023/06/05 01:24:06;;;;;;;5.53;4.07;;;;;18.40;97078.00;;;;4913407;29;20213;-75
2023/06/05 01:27:03;;;;;;;6.77;4.00;;;;;18.00;97067.00;;;;4910476;29;20201;-74
2023/06/05 01:29:56;;;;;;;4.60;4.17;;;;;18.20;97062.00;;;;4911188;29;20205;-75
2023/06/05 01:32:53;;;;;;;3.63;3.33;;;;;18.30;97080.00;;;;4909946;29;20225;-75
2023/06/05 01:35:44;;;;;;;4.70;3.90;;;;;18.30;97076.00;;;;4911953;29;20213;-75
2023/06/05 01:38:35;;;;;;;6.17;4.77;;;;;18.00;97074.00;;;;4918468;29;20216;-74
2023/06/05 01:41:26;;;;;;;4.53;3.97;;;;;18.10;97083.00;;;;4916318;29;20205;-75
2023/06/05 01:44:17;;;;;;;4.37;3.87;;;;;17.90;97084.00;;;;4917610;29;20215;-75
2023/06/05 01:47:07;;;;;;;4.10;3.70;;;;;17.70;97076.00;;;;4918084;29;20415;-75
2023/06/05 01:49:57;;;;;;;5.13;4.00;;;;;17.70;97080.00;;;;4918859;29;20208;-75
2023/06/05 01:52:46;;;;;;;4.53;4.07;;;;;17.90;97071.00;;;;4918543;29;20231;-75
2023/06/05 01:55:39;;;;;;;5.13;4.30;;;;;18.10;97072.00;;;;4919191;29;20209;-75
2023/06/05 01:58:29;;;;;;;5.50;4.00;;;;;18.20;97073.00;;;;4918434;29;20205;-75
2023/06/05 02:01:18;;;;;;;8.13;4.63;;;;;18.10;97067.00;;;;4907509;29;20205;-75
2023/06/05 02:04:08;;;;;;;6.10;4.53;;;;;17.90;97067.00;;;;4917829;29;20588;-75
2023/06/05 02:07:03;;;;;;;4.90;4.43;;;;;18.20;97072.00;;;;4918262;29;20358;-75
2023/06/05 02:09:52;;;;;;;4.77;4.37;;;;;18.10;97080.00;;;;4918324;29;20231;-75
2023/06/05 02:12:42;;;;;;;5.83;4.57;;;;;18.20;97064.00;;;;4918331;29;20232;-75
2023/06/05 02:15:34;;;;;;;5.27;4.77;;;;;18.00;97076.00;;;;4914657;29;20213;-75
2023/06/05 02:18:27;;;;;;;5.67;4.20;;;;;17.90;97071.00;;;;4916687;29;20221;-75
2023/06/05 02:21:16;;;;;;;4.50;4.10;;;;;18.00;97065.00;;;;4914945;29;20209;-75
2023/06/05 02:24:06;;;;;;;4.40;3.87;;;;;18.00;97066.00;;;;4918039;29;20251;-75
2023/06/05 02:26:56;;;;;;;4.77;4.20;;;;;17.90;97070.00;;;;4915539;29;20201;-75
2023/06/05 02:29:46;;;;;;;6.50;4.50;;;;;17.90;97070.00;;;;4914903;29;20205;-75
2023/06/05 02:32:41;;;;;;;5.27;4.77;;;;;17.80;97064.00;;;;4916599;29;20229;-75
2023/06/05 02:35:31;;;;;;;6.00;4.27;;;;;18.00;97061.00;;;;4914974;29;20205;-75
2023/06/05 02:38:20;;;;;;;7.97;5.13;;;;;18.00;97065.00;;;;4914208;29;20237;-75
2023/06/05 02:41:09;;;;;;;8.77;4.73;;;;;18.10;97065.00;;;;4909349;29;20220;-75
2023/06/05 02:43:59;;;;;;;4.67;4.27;;;;;18.10;97059.00;;;;4915112;29;20209;-75
2023/06/05 02:46:48;;;;;;;6.67;4.53;;;;;18.10;97058.00;;;;4915770;29;20205;-75
2023/06/05 02:49:39;;;;;;;4.87;4.47;;;;;18.00;97051.00;;;;4915586;29;20586;-75
2023/06/05 02:52:28;;;;;;;5.17;4.37;;;;;18.00;97046.00;;;;4914188;29;20629;-75
2023/06/05 02:55:17;;;;;;;5.00;4.50;;;;;18.00;97050.00;;;;4910665;29;20218;-75
2023/06/05 02:58:06;;;;;;;7.23;4.17;;;;;17.60;97041.00;;;;4914420;29;20236;-74
2023/06/05 03:00:55;;;;;;;4.77;4.20;;;;;17.40;97037.00;;;;4909227;29;20221;-73
2023/06/05 03:03:44;;;;;;;5.30;4.47;;;;;17.30;97038.00;;;;4914464;29;20292;-73
2023/06/05 03:06:35;;;;;;;5.77;4.10;;;;;17.30;97034.00;;;;4909543;29;20277;-75
2023/06/05 03:09:24;;;;;;;6.67;4.40;;;;;17.20;97037.00;;;;4915243;29;20767;-75
2023/06/05 03:12:13;;;;;;;4.77;4.27;;;;;17.50;97042.00;;;;4913351;29;20755;-74
2023/06/05 03:15:03;;;;;;;5.20;4.70;;;;;17.70;97031.00;;;;4912036;29;20206;-74
2023/06/05 03:17:52;;;;;;;4.80;4.33;;;;;17.80;97036.00;;;;4911811;29;20225;-74
2023/06/05 03:20:42;;;;;;;7.43;4.70;;;;;17.80;97042.00;;;;4913005;29;20265;-74
2023/06/05 03:23:32;;;;;;;4.33;3.93;;;;;17.90;97035.00;;;;4911165;29;20233;-74
2023/06/05 03:26:22;;;;;;;7.27;4.63;;;;;18.00;97037.00;;;;4912049;29;20273;-74
2023/06/05 03:29:12;;;;;;;8.17;4.77;;;;;18.00;97027.00;;;;4913195;29;20205;-74
2023/06/05 03:32:01;;;;;;;5.37;4.87;;;;;17.90;97026.00;;;;4914307;29;20598;-73
2023/06/05 03:34:50;;;;;;;6.13;4.80;;;;;17.90;97030.00;;;;4914328;29;20206;-73
2023/06/05 03:37:39;;;;;;;4.70;3.83;;;;;18.00;97030.00;;;;4911625;29;20986;-74
2023/06/05 03:40:30;;;;;;;10.07;4.40;;;;;18.10;97030.00;;;;4912725;29;20210;-73
2023/06/05 03:43:19;;;;;;;6.63;3.90;;;;;18.10;97028.00;;;;4911763;29;20221;-74
2023/06/05 03:46:10;;;;;;;4.33;3.70;;;;;17.90;97027.00;;;;4912270;29;20219;-74
2023/06/05 03:49:01;;;;;;;5.53;4.30;;;;;17.80;97029.00;;;;4913009;29;20706;-73
2023/06/05 03:51:50;;;;;;;5.33;4.37;;;;;17.70;97029.00;;;;4917174;29;20656;-73
2023/06/05 03:54:40;;;;;;;4.37;3.80;;;;;18.00;97026.00;;;;4910745;29;20216;-74
2023/06/05 03:57:32;;;;;;;8.20;4.47;;;;;18.10;97034.00;;;;4912708;29;20229;-74
2023/06/05 04:00:21;;;;;;;6.63;4.50;;;;;18.00;97030.00;;;;4910854;29;20216;-73
2023/06/05 04:03:10;;;;;;;6.50;4.40;;;;;18.00;97026.00;;;;4910419;29;20240;-74
2023/06/05 04:06:00;;;;;;;5.67;4.33;;;;;17.80;97031.00;;;;4910102;29;20210;-73
2023/06/05 04:08:49;;;;;;;4.33;3.97;;;;;17.80;97034.00;;;;4911159;29;20213;-73
2023/06/05 04:11:39;;;;;;;5.93;4.10;;;;;18.00;97033.00;;;;4913117;29;20221;-74
2023/06/05 04:14:29;;;;;;;5.77;5.00;;;;;18.20;97039.00;;;;4914854;29;20734;-72
2023/06/05 04:17:18;;;;;;;6.83;4.87;;;;;18.30;97038.00;;;;4914208;29;20225;-74
2023/06/05 04:20:10;;;;;;;5.10;4.60;;;;;18.20;97037.00;;;;4913100;29;20220;-74
2023/06/05 04:22:59;;;;;;;7.80;4.90;;;;;18.20;97032.00;;;;4910541;29;20265;-74
2023/06/05 04:25:48;;;;;;;5.40;4.20;;;;;18.20;97039.00;;;;4906990;29;20198;-74
2023/06/05 04:28:38;;;;;;;8.23;5.30;;;;;18.20;97038.00;;;;4911981;29;20695;-74
2023/06/05 04:31:30;;;;;;;4.50;4.10;;;;;18.20;97032.00;;;;4908333;29;20209;-74
2023/06/05 04:34:19;;;;;;;8.57;4.73;;;;;18.20;97039.00;;;;4909920;29;20213;-73
2023/06/05 04:37:08;;;;;;;5.77;4.97;;;;;18.20;97040.00;;;;4911806;29;20216;-74
2023/06/05 04:39:58;;;;;;;7.47;4.50;;;;;18.30;97042.00;;;;4908853;29;20260;-74
2023/06/05 04:42:47;;;;;;;5.37;4.63;;;;;18.40;97047.00;;;;4914891;29;20229;-73
2023/06/05 04:45:36;;;;;;;7.00;4.40;;;;;18.20;97043.00;;;;4910970;29;20209;-73
2023/06/05 04:48:27;;;;;;;6.17;4.37;;;;;18.20;97041.00;;;;4912176;29;20205;-73
2023/06/05 04:51:16;;;;;;;6.67;4.10;;;;;18.40;97035.00;;;;4911729;29;20209;-73
2023/06/05 04:54:06;;;;;;;5.67;4.40;;;;;18.50;97038.00;;;;4911907;29;20221;-73
2023/06/05 04:56:55;;;;;;;7.10;5.20;;;;;18.60;97032.00;;;;4915683;29;20927;-73
2023/06/05 04:59:44;;;;;;;5.10;4.70;;;;;18.70;97032.00;;;;4909290;29;20564;-73
2023/06/05 05:02:33;;;;;;;8.37;5.27;;;;;18.80;97024.00;;;;4910368;29;20644;-73
2023/06/05 05:05:23;;;;;;;6.83;4.43;;;;;18.90;97019.00;;;;4910103;29;20216;-74
2023/06/05 05:08:12;;;;;;;8.83;6.40;;;;;18.90;97014.00;;;;4911651;29;20201;-73
2023/06/05 05:11:01;;;;;;;6.73;5.60;;;;;18.90;97012.00;;;;4911467;29;20212;-73
2023/06/05 05:13:50;;;;;;;6.90;5.47;;;;;19.20;97018.00;;;;4909045;29;20209;-73
2023/06/05 05:16:42;;;;;;;7.43;5.50;;;;;19.20;97011.00;;;;4908565;29;20603;-73
2023/06/05 05:19:31;;;;;;;5.90;5.07;;;;;19.20;97014.00;;;;4912537;29;20232;-73
2023/06/05 05:22:22;;;;;;;7.93;5.87;;;;;19.30;96999.00;;;;4910098;29;20233;-73
2023/06/05 05:25:11;;;;;;;5.77;5.20;;;;;19.70;97011.00;;;;4912634;29;20216;-73
2023/06/05 05:28:00;;;;;;;7.10;5.37;;;;;19.90;97002.00;;;;4910239;29;20217;-73
2023/06/05 05:30:49;;;;;;;8.23;5.03;;;;;20.00;97002.00;;;;4921275;29;20201;-73
2023/06/05 05:33:38;;;;;;;6.60;5.40;;;;;20.00;97012.00;;;;4921628;29;20209;-73
2023/06/05 05:36:27;;;;;;;7.90;5.00;;;;;20.20;97019.00;;;;4918870;29;20201;-73
2023/06/05 05:39:19;;;;;;;8.87;5.47;;;;;20.10;97017.00;;;;4923649;29;20236;-73
2023/06/05 05:42:08;;;;;;;8.50;5.27;;;;;20.10;97022.00;;;;4906715;29;20232;-73
2023/06/05 05:44:57;;;;;;;6.73;4.70;;;;;19.80;97021.00;;;;4918248;29;20213;-73
2023/06/05 05:47:46;;;;;;;6.67;4.60;;;;;19.90;97025.00;;;;4917158;29;20676;-73
2023/06/05 05:50:35;;;;;;;7.10;5.00;;;;;19.80;97024.00;;;;4917647;29;20256;-74
2023/06/05 05:53:24;;;;;;;6.50;5.40;;;;;19.70;97024.00;;;;4915524;29;20218;-73
2023/06/05 05:56:14;;;;;;;6.00;5.23;;;;;19.80;97037.00;;;;4913500;29;20212;-73
2023/06/05 05:59:04;;;;;;;10.30;5.30;;;;;19.90;97027.00;;;;4911577;29;20231;-73
2023/06/05 06:01:53;;;;;;;6.33;5.33;;;;;19.70;97030.00;;;;4910289;29;20725;-74
2023/06/05 06:04:43;;;;;;;6.23;5.63;;;;;19.70;97033.00;;;;4908561;29;20226;-73
2023/06/05 06:07:33;;;;;;;6.13;4.97;;;;;19.80;97030.00;;;;4907695;29;20220;-73
2023/06/05 06:10:22;;;;;;;9.43;6.13;;;;;19.80;97033.00;;;;4909077;29;20229;-73
2023/06/05 06:13:13;;;;;;;6.43;4.83;;;;;19.80;97038.00;;;;4909689;29;20240;-73
2023/06/05 06:16:02;;;;;;;7.43;5.20;;;;;19.80;97043.00;;;;4908392;29;20214;-73
2023/06/05 06:18:52;;;;;;;7.43;5.27;;;;;19.80;97042.00;;;;4906407;29;20222;-73
2023/06/05 06:21:42;;;;;;;8.13;5.23;;;;;19.80;97036.00;;;;4896438;29;20221;-73
2023/06/05 06:24:31;;;;;;;6.57;5.20;;;;;19.80;97042.00;;;;4915135;29;20224;-72
2023/06/05 06:27:21;;;;;;;8.23;4.87;;;;;19.80;97039.00;;;;4910872;29;20213;-74
2023/06/05 06:30:23;;;;;;;6.27;5.03;;;;;19.80;97031.00;;;;4913005;29;20244;-73
2023/06/05 06:33:12;;;;;;;9.53;5.37;;;;;19.70;97028.00;;;;4914839;29;20617;-73
2023/06/05 06:36:01;;;;;;;7.57;4.97;;;;;19.60;97030.00;;;;4913227;29;20223;-73
2023/06/05 06:38:50;;;;;;;7.63;5.90;;;;;19.60;97029.00;;;;4909441;29;20222;-73
2023/06/05 06:41:39;;;;;;;5.27;4.77;;;;;19.60;97034.00;;;;4909636;29;20233;-73
2023/06/05 06:44:29;;;;;;;5.97;5.37;;;;;19.70;97021.00;;;;4913928;29;20606;-73
2023/06/05 06:47:19;;;;;;;7.30;5.40;;;;;19.80;97018.00;;;;4915037;29;20206;-73
2023/06/05 06:50:09;;;;;;;8.67;5.57;;;;;19.60;97021.00;;;;4914000;29;20197;-74
2023/06/05 06:52:58;;;;;;;6.80;5.80;;;;;19.70;97019.00;;;;4912738;29;20243;-73
2023/06/05 06:55:47;;;;;;;8.10;5.63;;;;;19.60;97025.00;;;;4918843;29;20209;-74
2023/06/05 06:58:37;;;;;;;7.17;5.53;;;;;20.00;97023.00;;;;4914044;29;20314;-74
2023/06/05 07:01:26;;;;;;;6.03;5.43;;;;;20.00;97023.00;;;;4911684;29;20216;-74
2023/06/05 07:04:19;;;;;;;5.70;4.77;;;;;20.30;97026.00;;;;4920753;29;20682;-73
2023/06/05 07:07:11;;;;;;;7.23;5.43;;;;;20.40;97027.00;;;;4902535;29;20201;-73
2023/06/05 07:10:00;;;;;;;6.50;5.43;;;;;20.50;97033.00;;;;4911797;29;20215;-74
2023/06/05 07:12:49;;;;;;;8.93;5.47;;;;;20.30;97035.00;;;;4910835;29;20233;-74
2023/06/05 07:15:38;;;;;;;6.77;6.10;;;;;20.50;97025.00;;;;4913063;29;20215;-74
2023/06/05 07:18:27;;;;;;;5.20;4.47;;;;;20.70;97029.00;;;;4910884;29;20705;-74
2023/06/05 07:21:18;;;;;;;6.10;5.50;;;;;20.60;97032.00;;;;4914038;29;20225;-74
2023/06/05 07:24:07;;;;;;;8.20;6.37;;;;;20.60;97042.00;;;;4917468;29;20216;-74
2023/06/05 07:26:58;;;;;;;6.53;5.93;;;;;20.40;97047.00;;;;4910515;29;20209;-73
2023/06/05 07:29:48;;;;;;;6.37;5.57;;;;;20.50;97052.00;;;;4920929;29;20205;-73
2023/06/05 07:32:38;;;;;;;6.97;6.27;;;;;20.30;97044.00;;;;4915387;29;20607;-72
2023/06/05 07:35:27;;;;;;;7.70;5.50;;;;;20.30;97045.00;;;;4910399;29;20225;-72
2023/06/05 07:38:17;;;;;;;6.13;5.33;;;;;20.30;97052.00;;;;4918145;29;20683;-71
2023/06/05 07:41:07;;;;;;;9.57;5.17;;;;;20.30;97048.00;;;;4911941;29;20226;-73
2023/06/05 07:43:56;;;;;;;9.93;5.60;;;;;19.90;97058.00;;;;4921943;29;20276;-72
2023/06/05 07:46:46;;;;;;;6.80;6.10;;;;;20.10;97045.00;;;;4918918;29;20683;-72
2023/06/05 07:49:35;;;;;;;8.10;5.13;;;;;20.10;97044.00;;;;4916292;29;20272;-71
2023/06/05 07:52:24;;;;;;;7.17;5.97;;;;;20.10;97047.00;;;;4907770;29;20600;-74
2023/06/05 07:55:15;;;;;;;10.60;6.07;;;;;20.10;97043.00;;;;4911772;29;20213;-73
2023/06/05 07:58:04;;;;;;;7.87;5.77;;;;;20.10;97039.00;;;;4913676;29;20588;-73
2023/06/05 08:00:53;;;;;;;8.10;5.77;;;;;20.00;97044.00;;;;4905283;29;20255;-73
2023/06/05 08:03:43;;;;;;;8.20;5.03;;;;;20.10;97037.00;;;;4912067;29;20209;-73
2023/06/05 08:06:32;;;;;;;8.67;5.70;;;;;20.00;97044.00;;;;4913228;29;20210;-73
2023/06/05 08:09:22;;;;;;;8.03;6.60;;;;;20.00;97046.00;;;;4917044;29;20589;-73
2023/06/05 08:12:12;;;;;;;6.13;5.53;;;;;19.70;97035.00;;;;4923866;29;20229;-73
2023/06/05 08:15:01;;;;;;;8.00;6.33;;;;;19.30;97034.00;;;;4918930;29;20209;-74
2023/06/05 08:17:50;;;;;;;7.47;6.67;;;;;19.10;97037.00;;;;4916863;29;20296;-73
2023/06/05 08:20:40;;;;;;;6.77;6.07;;;;;18.70;97032.00;;;;4912240;29;20240;-74
2023/06/05 08:23:29;;;;;;;8.20;7.37;;;;;18.80;97037.00;;;;4911563;29;20228;-75
2023/06/05 08:26:20;;;;;;;7.57;6.57;;;;;19.20;97037.00;;;;4912954;29;20205;-74
2023/06/05 08:29:12;;;;;;;8.53;6.90;;;;;19.20;97038.00;;;;4910873;29;20209;-74
2023/06/05 08:32:01;;;;;;;10.93;7.73;;;;;19.30;97037.00;;;;4910994;29;20296;-74
2023/06/05 08:34:50;;;;;;;7.90;6.13;;;;;19.40;97047.00;;;;4914118;29;20205;-75
2023/06/05 08:37:40;;;;;;;10.23;7.70;;;;;19.20;97048.00;;;;4911381;29;20683;-74
2023/06/05 08:40:31;;;;;;;11.67;6.27;;;;;19.30;97061.00;;;;4907265;29;20230;-74
2023/06/05 08:43:20;;;;;;;9.00;7.30;;;;;19.20;97053.00;;;;4909352;29;20657;-74
2023/06/05 08:46:12;;;;;;;7.00;6.30;;;;;18.90;97058.00;;;;4911846;29;20562;-74
2023/06/05 08:49:08;;;;;;;9.10;6.50;;;;;19.00;97081.00;;;;4911644;29;20248;-74
2023/06/05 08:52:00;;;;;;;8.97;6.40;;;;;19.00;97078.00;;;;4913541;29;20225;-73
2023/06/05 08:54:49;;;;;;;8.23;6.17;;;;;18.70;97075.00;;;;4911748;29;20592;-73
2023/06/05 08:57:40;;;;;;;6.60;5.87;;;;;18.90;97080.00;;;;4911027;29;20683;-73
2023/06/05 09:00:30;;;;;;;5.73;5.23;;;;;18.90;97080.00;;;;4909798;29;20221;-73
2023/06/05 09:03:21;;;;;;;10.73;6.63;;;;;18.80;97080.00;;;;4915316;29;20231;-74
2023/06/05 09:06:11;;;;;;;6.30;5.37;;;;;18.90;97077.00;;;;4907492;29;20207;-73
2023/06/05 09:09:01;;;;;;;7.03;6.10;;;;;19.00;97073.00;;;;4910606;29;20220;-73
2023/06/05 09:12:02;;;;;;;6.40;5.80;;;;;19.00;97067.00;;;;4912412;29;20217;-73
2023/06/05 09:14:51;;;;;;;6.23;4.90;;;;;18.90;97066.00;;;;4906685;29;20209;-73
2023/06/05 09:17:41;;;;;;;6.93;4.73;;;;;18.60;97059.00;;;;4913415;28;20210;-74
2023/06/05 09:20:34;;;;;;;4.63;3.30;;;;;18.50;97067.00;;;;4907674;29;20643;-73
2023/06/05 09:23:26;;;;;;;7.03;5.83;;;;;18.40;97072.00;;;;4911643;29;20217;-74
2023/06/05 09:26:16;;;;;;;5.83;5.20;;;;;18.50;97073.00;;;;4907974;29;20208;-74
2023/06/05 09:29:05;;;;;;;5.27;4.77;;;;;18.40;97064.00;;;;4908806;29;20209;-73
2023/06/05 09:31:55;;;;;;;5.53;4.50;;;;;18.40;97071.00;;;;4907053;29;21659;-75
2023/06/05 09:34:45;;;;;;;4.67;3.97;;;;;18.20;97061.00;;;;4908859;29;20198;-74
2023/06/05 09:37:37;;;;;;;3.60;3.30;;;;;18.20;97060.00;;;;4912323;29;20207;-74
2023/06/05 09:40:38;;;;;;;7.80;4.40;;;;;18.20;97056.00;;;;4907243;29;20222;-74
2023/06/05 09:43:27;;;;;;;3.33;2.90;;;;;18.10;97050.00;;;;4910592;29;20240;-73
2023/06/05 09:46:17;;;;;;;4.07;3.67;;;;;18.20;97052.00;;;;4912767;29;20220;-72
2023/06/05 09:49:06;;;;;;;3.63;2.80;;;;;17.70;97055.00;;;;4909919;29;20705;-74
2023/06/05 09:51:57;;;;;;;3.67;3.10;;;;;17.80;97050.00;;;;4909073;29;20225;-73
2023/06/05 09:54:48;;;;;;;4.37;3.93;;;;;17.90;97058.00;;;;4915925;29;20259;-74
2023/06/05 09:57:38;;;;;;;5.03;3.33;;;;;18.00;97054.00;;;;4917691;29;20209;-73
2023/06/05 10:00:28;;;;;;;3.97;3.57;;;;;18.00;97052.00;;;;4918930;29;20224;-73
2023/06/05 10:03:19;;;;;;;3.23;2.93;;;;;18.20;97053.00;;;;4914348;29;20229;-72
2023/06/05 10:06:09;;;;;;;4.60;3.83;;;;;18.50;97050.00;;;;4912665;29;20217;-73
2023/06/05 10:09:09;;;;;;;4.27;3.13;;;;;18.70;97045.00;;;;4915706;29;20590;-73
2023/06/05 10:12:00;;;;;;;4.10;3.77;;;;;18.60;97054.00;;;;4913422;29;20613;-72
2023/06/05 10:14:50;;;;;;;5.40;3.37;;;;;18.70;97056.00;;;;4911913;29;20216;-72
2023/06/05 10:17:40;;;;;;;3.10;2.80;;;;;18.50;97047.00;;;;4912474;29;20221;-73
2023/06/05 10:20:30;;;;;;;4.47;3.13;;;;;18.10;97042.00;;;;4911373;29;20232;-73
2023/06/05 10:23:19;;;;;;;3.07;2.70;;;;;18.50;97045.00;;;;4913388;29;20229;-73
2023/06/05 10:26:15;;;;;;;4.07;3.57;;;;;18.50;97044.00;;;;4914905;29;20699;-73
2023/06/05 10:29:14;;;;;;;3.27;3.00;;;;;18.60;97044.00;;;;4923083;29;20571;-72
2023/06/05 10:32:06;;;;;;;3.60;3.30;;;;;18.70;97037.00;;;;4919862;29;20218;-73
2023/06/05 10:35:02;;;;;;;3.70;3.47;;;;;18.90;97042.00;;;;4920255;29;20722;-73
2023/06/05 10:38:01;;;;;;;4.30;3.80;;;;;19.30;97049.00;;;;4912522;29;20302;-73
2023/06/05 10:40:54;;;;;;;3.77;3.37;;;;;19.20;97050.00;;;;4918431;29;20599;-73
2023/06/05 10:43:50;;;;;;;5.20;2.97;;;;;19.50;97049.00;;;;4915194;29;20591;-73
2023/06/05 10:46:41;;;;;;;4.23;2.77;;;;;19.20;97042.00;;;;4913396;29;20228;-73
2023/06/05 10:49:30;;;;;;;3.83;3.23;;;;;19.30;97056.00;;;;4916984;29;20201;-73
2023/06/05 10:52:37;;;;;;;3.67;3.10;;;;;19.50;97059.00;;;;4913587;29;20221;-72
2023/06/05 10:55:27;;;;;;;4.73;3.30;;;;;19.30;97049.00;;;;4915216;29;20840;-74
2023/06/05 10:58:17;;;;;;;3.70;3.40;;;;;19.30;97058.00;;;;4911809;29;20211;-73
2023/06/05 11:01:20;;;;;;;4.10;3.70;;;;;19.80;97054.00;;;;4913003;29;20229;-73
2023/06/05 11:04:11;;;;;;;3.63;3.33;;;;;19.90;97056.00;;;;4924952;29;20216;-73
2023/06/05 11:07:16;;;;;;;3.67;3.37;;;;;19.90;97057.00;;;;4911077;29;20212;-73
2023/06/05 11:10:15;;;;;;;3.70;3.40;;;;;20.00;97059.00;;;;4913455;29;20217;-73
2023/06/05 11:13:05;;;;;;;3.60;3.30;;;;;19.70;97053.00;;;;4908211;29;20222;-73
2023/06/05 11:15:56;;;;;;;4.50;3.47;;;;;20.10;97061.00;;;;4912926;29;20630;-74
2023/06/05 11:18:46;;;;;;;4.13;2.87;;;;;20.20;97055.00;;;;4910798;29;20261;-73
2023/06/05 11:22:03;;;;;;;3.70;2.93;;;;;20.20;97066.00;;;;4913389;29;20293;-74
2023/06/05 11:25:26;;;;;;;3.90;3.47;;;;;19.80;97077.00;;;;4914810;29;20209;-73
2023/06/05 11:28:21;;;;;;;3.10;2.83;;;;;19.80;97073.00;;;;4911879;29;20311;-73
2023/06/05 11:31:11;;;;;;;3.93;3.63;;;;;20.10;97089.00;;;;4910915;29;20201;-72
2023/06/05 11:34:00;;;;;;;3.77;3.47;;;;;20.00;97093.00;;;;4904343;29;20241;-72
2023/06/05 11:36:50;;;;;;;6.23;3.33;;;;;19.60;97086.00;;;;4912447;29;20284;-72
2023/06/05 11:39:46;;;;;;;3.87;3.20;;;;;19.00;97084.00;;;;4910899;29;20213;-72
2023/06/05 11:42:35;;;;;;;3.23;2.93;;;;;17.90;97086.00;;;;4913487;29;20491;-73
2023/06/05 11:45:25;;;;;;;3.67;3.27;;;;;18.70;97088.00;;;;4913382;29;20209;-72
2023/06/05 11:48:15;;;;;;;4.63;3.27;;;;;18.70;97081.00;;;;4908966;29;20264;-73
2023/06/05 11:51:05;;;;;;;4.60;3.20;;;;;18.50;97077.00;;;;4914057;29;20204;-73
2023/06/05 11:53:57;;;;;;;7.83;3.67;;;;;18.50;97074.00;;;;4911775;29;20308;-73
2023/06/05 11:56:52;;;;;;;10.30;4.20;;;;;18.50;97077.00;;;;4910204;29;20248;-73
2023/06/05 11:59:41;;;;;;;5.37;3.73;;;;;18.50;97082.00;;;;4915422;29;20215;-73
2023/06/05 12:02:30;;;;;;;5.80;4.27;;;;;18.50;97070.00;;;;4916616;29;20244;-73
2023/06/05 12:05:20;;;;;;;4.60;4.20;;;;;18.60;97076.00;;;;4913150;29;20249;-72
2023/06/05 12:08:25;;;;;;;4.93;4.43;;;;;18.60;97075.00;;;;4912094;29;20713;-73
2023/06/05 12:11:25;;;;;;;4.60;4.10;;;;;18.50;97082.00;;;;4912916;29;20201;-72
2023/06/05 12:14:29;;;;;;;4.17;3.77;;;;;18.70;97071.00;;;;4913541;29;20210;-74
2023/06/05 12:17:18;;;;;;;4.97;3.80;;;;;18.70;97067.00;;;;4911038;29;20224;-73
2023/06/05 12:20:09;;;;;;;4.60;4.20;;;;;18.70;97069.00;;;;4912154;29;20224;-73
2023/06/05 12:22:58;;;;;;;5.33;3.87;;;;;18.70;97068.00;;;;4912633;29;20241;-73
2023/06/05 12:25:59;;;;;;;4.47;4.07;;;;;18.80;97059.00;;;;4913383;29;20219;-74
2023/06/05 12:28:48;;;;;;;5.77;4.50;;;;;18.80;97052.00;;;;4907401;29;20207;-73
2023/06/05 12:31:39;;;;;;;5.87;4.73;;;;;18.50;97049.00;;;;4915837;29;20233;-73
2023/06/05 12:34:41;;;;;;;7.17;4.13;;;;;18.90;97046.00;;;;4911680;29;20197;-74
2023/06/05 12:37:45;;;;;;;5.13;4.63;;;;;18.50;97041.00;;;;4912525;29;20205;-73
2023/06/05 12:40:34;;;;;;;9.30;5.23;;;;;18.50;97043.00;;;;4913747;29;20593;-73
2023/06/05 12:43:25;;;;;;;6.37;4.97;;;;;18.40;97039.00;;;;4913996;29;20368;-73
2023/06/05 12:46:14;;;;;;;5.33;4.33;;;;;18.00;97039.00;;;;4915014;28;20201;-73
2023/06/05 12:49:05;;;;;;;4.73;4.23;;;;;18.40;97038.00;;;;4916156;29;20220;-73
2023/06/05 12:51:55;;;;;;;5.03;4.53;;;;;18.20;97024.00;;;;4905300;29;20236;-73
2023/06/05 12:54:45;;;;;;;4.43;4.07;;;;;18.20;97033.00;;;;4908365;29;20214;-72
2023/06/05 12:57:35;;;;;;;4.83;4.43;;;;;18.30;97032.00;;;;4911055;29;20691;-73
2023/06/05 13:00:24;;;;;;;4.57;4.17;;;;;18.00;97024.00;;;;4907186;29;20205;-73
2023/06/05 13:03:13;;;;;;;5.03;3.90;;;;;18.20;97018.00;;;;4910903;29;20734;-73
2023/06/05 13:06:04;;;;;;;5.70;5.10;;;;;18.20;97026.00;;;;4900953;29;20220;-73
2023/06/05 13:08:53;;;;;;;4.73;4.33;;;;;18.20;97027.00;;;;4910910;29;20198;-73
2023/06/05 13:11:43;;;;;;;5.50;4.93;;;;;18.30;97025.00;;;;4911453;29;20244;-72
2023/06/05 13:14:32;;;;;;;4.03;3.73;;;;;18.60;97024.00;;;;4912653;29;20210;-73
2023/06/05 13:17:22;;;;;;;6.70;4.83;;;;;19.00;97017.00;;;;4911822;29;20210;-73
2023/06/05 13:20:12;;;;;;;6.13;5.53;;;;;19.00;97013.00;;;;4911826;29;20261;-74
2023/06/05 13:23:06;;;;;;;4.70;4.30;;;;;18.80;97011.00;;;;4908034;29;20236;-73
2023/06/05 13:25:56;;;;;;;5.73;5.10;;;;;18.80;97010.00;;;;4908308;29;20240;-73
2023/06/05 13:28:45;;;;;;;4.60;4.20;;;;;18.40;97011.00;;;;4910465;29;20201;-73
2023/06/05 13:31:34;;;;;;;5.33;4.80;;;;;18.30;97005.00;;;;4910855;29;20225;-72
2023/06/05 13:34:23;;;;;;;8.53;6.77;;;;;18.20;97008.00;;;;4911912;29;20300;-73
2023/06/05 13:37:12;;;;;;;5.73;5.23;;;;;18.10;97000.00;;;;4918023;29;20671;-72
2023/06/05 13:40:06;;;;;;;4.73;4.33;;;;;18.40;97002.00;;;;4908716;29;20683;-73
2023/06/05 13:42:55;;;;;;;7.13;4.73;;;;;18.50;96997.00;;;;4918519;29;20580;-73
2023/06/05 13:45:44;;;;;;;7.30;5.27;;;;;18.60;96991.00;;;;4910688;29;20214;-73
2023/06/05 13:48:37;;;;;;;5.43;4.87;;;;;18.60;96998.00;;;;4914251;29;20279;-73
2023/06/05 13:51:26;;;;;;;5.50;4.50;;;;;18.30;96987.00;;;;4918566;29;20201;-73
2023/06/05 13:54:15;;;;;;;5.23;4.73;;;;;18.40;96990.00;;;;4915321;29;20219;-73
2023/06/05 13:57:05;;;;;;;6.43;5.13;;;;;18.60;96982.00;;;;4911049;29;20223;-73
2023/06/05 13:59:55;;;;;;;4.90;4.40;;;;;18.80;96999.00;;;;4908044;29;20209;-73
2023/06/05 14:02:44;;;;;;;5.80;4.80;;;;;18.50;96990.00;;;;4910145;29;20224;-73
2023/06/05 14:05:33;;;;;;;6.60;5.43;;;;;18.40;96980.00;;;;4911408;29;20216;-73
2023/06/05 14:08:22;;;;;;;6.23;4.70;;;;;17.90;96976.00;;;;4910139;29;20240;-72
2023/06/05 14:11:11;;;;;;;6.17;4.13;;;;;18.20;96973.00;;;;4910834;29;20695;-73
2023/06/05 14:14:02;;;;;;;4.77;4.23;;;;;18.20;96971.00;;;;4912372;29;20202;-73
2023/06/05 14:16:51;;;;;;;5.27;4.80;;;;;18.10;96970.00;;;;4911782;29;20209;-73